Terminal Aerodrome Forecast
Issued by NWS

Home | Current Version | Previous Version | Text Only | Print | Product List | Glossary On
Versions: 1 2 3 4 5 6 7 8 9 10 11 12 13 14 15 16 17 18 19 20 21 22 23 24 25 26 27
000
FTUS41 KALY 180500
TAFPSF
TAF
KPSF 180537Z 1806/1906 28008KT P6SM VCSH OVC009
      TEMPO 1806/1810 2SM -SN BR VV004
     FM181200 29010G17KT P6SM BKN025 OVC035
     FM181500 29012G21KT P6SM SCT025 BKN035
     FM182300 29009G15KT P6SM BKN030=

USA.gov is the U.S. government's official web portal to all federal, state and local government web resources and services.